sensor_id;sensor_type;location;lat;lon;timestamp;temperature;humidity
20481;DHT22;10399;50.754;3.366;2023-06-24T00:00:31;20.10;99.90
20481;DHT22;10399;50.754;3.366;2023-06-24T00:02:58;20.10;99.90
20481;DHT22;10399;50.754;3.366;2023-06-24T00:05:28;20.00;99.90
20481;DHT22;10399;50.754;3.366;2023-06-24T00:07:55;20.00;99.90
20481;DHT22;10399;50.754;3.366;2023-06-24T00:10:23;19.90;99.90
20481;DHT22;10399;50.754;3.366;2023-06-24T00:12:51;20.00;99.90
20481;DHT22;10399;50.754;3.366;2023-06-24T00:15:18;19.90;99.90
20481;DHT22;10399;50.754;3.366;2023-06-24T00:17:45;19.70;99.90
20481;DHT22;10399;50.754;3.366;2023-06-24T00:20:12;19.70;99.90
20481;DHT22;10399;50.754;3.366;2023-06-24T00:22:41;19.60;99.90
20481;DHT22;10399;50.754;3.366;2023-06-24T00:25:11;19.70;99.90
20481;DHT22;10399;50.754;3.366;2023-06-24T00:27:38;19.60;99.90
20481;DHT22;10399;50.754;3.366;2023-06-24T00:30:06;19.60;99.90
20481;DHT22;10399;50.754;3.366;2023-06-24T00:32:33;19.50;99.90
20481;DHT22;10399;50.754;3.366;2023-06-24T00:35:00;19.80;99.90
20481;DHT22;10399;50.754;3.366;2023-06-24T00:37:27;19.50;99.90
20481;DHT22;10399;50.754;3.366;2023-06-24T00:39:54;19.60;99.90
20481;DHT22;10399;50.754;3.366;2023-06-24T00:42:21;19.70;99.90
20481;DHT22;10399;50.754;3.366;2023-06-24T00:44:48;19.50;99.90
20481;DHT22;10399;50.754;3.366;2023-06-24T00:47:16;19.60;99.90
20481;DHT22;10399;50.754;3.366;2023-06-24T00:49:43;19.50;99.90
20481;DHT22;10399;50.754;3.366;2023-06-24T00:52:12;19.60;99.90
20481;DHT22;10399;50.754;3.366;2023-06-24T00:54:43;19.50;99.90
20481;DHT22;10399;50.754;3.366;2023-06-24T00:57:11;19.50;99.90
20481;DHT22;10399;50.754;3.366;2023-06-24T00:59:40;19.40;99.90
20481;DHT22;10399;50.754;3.366;2023-06-24T01:02:10;19.40;99.90
20481;DHT22;10399;50.754;3.366;2023-06-24T01:04:38;19.50;99.90
20481;DHT22;10399;50.754;3.366;2023-06-24T01:07:05;19.30;99.90
20481;DHT22;10399;50.754;3.366;2023-06-24T01:09:33;19.60;99.90
20481;DHT22;10399;50.754;3.366;2023-06-24T01:12:01;19.40;99.90
20481;DHT22;10399;50.754;3.366;2023-06-24T01:14:28;19.50;99.90
20481;DHT22;10399;50.754;3.366;2023-06-24T01:17:02;19.30;99.90
20481;DHT22;10399;50.754;3.366;2023-06-24T01:19:37;19.20;99.90
20481;DHT22;10399;50.754;3.366;2023-06-24T01:22:19;19.30;99.90
20481;DHT22;10399;50.754;3.366;2023-06-24T01:25:02;19.20;99.90
20481;DHT22;10399;50.754;3.366;2023-06-24T01:27:48;19.10;99.90
20481;DHT22;10399;50.754;3.366;2023-06-24T01:32:59;19.10;99.90
20481;DHT22;10399;50.754;3.366;2023-06-24T01:35:32;19.40;99.90
20481;DHT22;10399;50.754;3.366;2023-06-24T01:38:08;19.10;99.90
20481;DHT22;10399;50.754;3.366;2023-06-24T01:40:46;19.10;99.90
20481;DHT22;10399;50.754;3.366;2023-06-24T01:43:15;19.40;99.90
20481;DHT22;10399;50.754;3.366;2023-06-24T01:45:48;19.20;99.90
20481;DHT22;10399;50.754;3.366;2023-06-24T01:48:19;19.20;99.90
20481;DHT22;10399;50.754;3.366;2023-06-24T01:53:22;19.00;99.90
20481;DHT22;10399;50.754;3.366;2023-06-24T01:55:51;18.80;99.90
20481;DHT22;10399;50.754;3.366;2023-06-24T01:58:21;18.80;99.90
20481;DHT22;10399;50.754;3.366;2023-06-24T02:00:50;18.90;99.90
20481;DHT22;10399;50.754;3.366;2023-06-24T02:03:19;19.00;99.90
20481;DHT22;10399;50.754;3.366;2023-06-24T02:05:48;18.50;99.90
20481;DHT22;10399;50.754;3.366;2023-06-24T02:08:17;18.30;99.90
20481;DHT22;10399;50.754;3.366;2023-06-24T02:10:45;18.40;99.90
20481;DHT22;10399;50.754;3.366;2023-06-24T02:13:13;18.60;99.90
20481;DHT22;10399;50.754;3.366;2023-06-24T02:15:41;18.70;99.90
20481;DHT22;10399;50.754;3.366;2023-06-24T02:18:09;18.50;99.90
20481;DHT22;10399;50.754;3.366;2023-06-24T02:20:38;18.60;99.90
20481;DHT22;10399;50.754;3.366;2023-06-24T02:23:07;18.60;99.90
20481;DHT22;10399;50.754;3.366;2023-06-24T02:25:36;18.50;99.90
20481;DHT22;10399;50.754;3.366;2023-06-24T02:28:08;18.60;99.90
20481;DHT22;10399;50.754;3.366;2023-06-24T02:30:37;18.60;99.90
20481;DHT22;10399;50.754;3.366;2023-06-24T02:33:05;18.40;99.90
20481;DHT22;10399;50.754;3.366;2023-06-24T02:35:33;18.40;99.90
20481;DHT22;10399;50.754;3.366;2023-06-24T02:38:01;18.40;99.90
20481;DHT22;10399;50.754;3.366;2023-06-24T02:40:30;18.60;99.90
20481;DHT22;10399;50.754;3.366;2023-06-24T02:42:59;18.60;99.90
20481;DHT22;10399;50.754;3.366;2023-06-24T02:45:27;18.20;99.90
20481;DHT22;10399;50.754;3.366;2023-06-24T02:47:55;18.20;99.90
20481;DHT22;10399;50.754;3.366;2023-06-24T02:50:23;18.20;99.90
20481;DHT22;10399;50.754;3.366;2023-06-24T02:52:52;18.20;99.90
20481;DHT22;10399;50.754;3.366;2023-06-24T02:55:19;18.20;99.90
20481;DHT22;10399;50.754;3.366;2023-06-24T02:57:47;17.80;99.90
20481;DHT22;10399;50.754;3.366;2023-06-24T03:00:15;17.50;99.90
20481;DHT22;10399;50.754;3.366;2023-06-24T03:02:45;17.70;99.90
20481;DHT22;10399;50.754;3.366;2023-06-24T03:05:14;17.80;99.90
20481;DHT22;10399;50.754;3.366;2023-06-24T03:07:42;17.70;99.90
20481;DHT22;10399;50.754;3.366;2023-06-24T03:10:10;17.80;99.90
20481;DHT22;10399;50.754;3.366;2023-06-24T03:12:37;17.80;99.90
20481;DHT22;10399;50.754;3.366;2023-06-24T03:15:05;17.90;99.90
20481;DHT22;10399;50.754;3.366;2023-06-24T03:17:33;17.90;99.90
20481;DHT22;10399;50.754;3.366;2023-06-24T03:20:00;17.70;99.90
20481;DHT22;10399;50.754;3.366;2023-06-24T03:22:27;17.50;99.90
20481;DHT22;10399;50.754;3.366;2023-06-24T03:24:54;17.80;99.90
20481;DHT22;10399;50.754;3.366;2023-06-24T03:27:21;17.60;99.90
20481;DHT22;10399;50.754;3.366;2023-06-24T03:29:48;17.70;99.90
20481;DHT22;10399;50.754;3.366;2023-06-24T03:32:15;17.70;99.90
20481;DHT22;10399;50.754;3.366;2023-06-24T03:34:43;17.70;99.90
20481;DHT22;10399;50.754;3.366;2023-06-24T03:37:09;17.70;99.90
20481;DHT22;10399;50.754;3.366;2023-06-24T03:39:36;17.70;99.90
20481;DHT22;10399;50.754;3.366;2023-06-24T03:42:04;17.60;99.90
20481;DHT22;10399;50.754;3.366;2023-06-24T03:44:31;17.50;99.90
20481;DHT22;10399;50.754;3.366;2023-06-24T03:46:58;17.60;99.90
20481;DHT22;10399;50.754;3.366;2023-06-24T03:49:25;17.60;99.90
20481;DHT22;10399;50.754;3.366;2023-06-24T03:51:52;17.50;99.90
20481;DHT22;10399;50.754;3.366;2023-06-24T03:54:19;17.30;99.90
20481;DHT22;10399;50.754;3.366;2023-06-24T03:56:46;17.30;99.90
20481;DHT22;10399;50.754;3.366;2023-06-24T03:59:13;17.40;99.90
20481;DHT22;10399;50.754;3.366;2023-06-24T04:01:40;17.30;99.90
20481;DHT22;10399;50.754;3.366;2023-06-24T04:04:08;17.30;99.90
20481;DHT22;10399;50.754;3.366;2023-06-24T04:06:35;17.30;99.90
20481;DHT22;10399;50.754;3.366;2023-06-24T04:09:02;17.40;99.90
20481;DHT22;10399;50.754;3.366;2023-06-24T04:11:29;17.40;99.90
20481;DHT22;10399;50.754;3.366;2023-06-24T04:13:56;17.50;99.90
20481;DHT22;10399;50.754;3.366;2023-06-24T04:16:23;17.40;99.90
20481;DHT22;10399;50.754;3.366;2023-06-24T04:18:50;17.30;99.90
20481;DHT22;10399;50.754;3.366;2023-06-24T04:21:17;17.40;99.90
20481;DHT22;10399;50.754;3.366;2023-06-24T04:23:45;17.30;99.90
20481;DHT22;10399;50.754;3.366;2023-06-24T04:26:12;17.40;99.90
20481;DHT22;10399;50.754;3.366;2023-06-24T04:28:39;17.40;99.90
20481;DHT22;10399;50.754;3.366;2023-06-24T04:31:06;17.40;99.90
20481;DHT22;10399;50.754;3.366;2023-06-24T04:33:33;17.50;99.90
20481;DHT22;10399;50.754;3.366;2023-06-24T04:36:01;17.80;99.90
20481;DHT22;10399;50.754;3.366;2023-06-24T04:38:28;17.40;99.90
20481;DHT22;10399;50.754;3.366;2023-06-24T04:40:55;17.30;99.90
20481;DHT22;10399;50.754;3.366;2023-06-24T04:43:26;17.30;99.90
20481;DHT22;10399;50.754;3.366;2023-06-24T04:45:56;17.40;99.90
20481;DHT22;10399;50.754;3.366;2023-06-24T04:48:24;17.50;99.90
20481;DHT22;10399;50.754;3.366;2023-06-24T04:50:51;17.50;99.90
20481;DHT22;10399;50.754;3.366;2023-06-24T04:53:21;17.50;99.90
20481;DHT22;10399;50.754;3.366;2023-06-24T04:55:48;17.50;99.90
20481;DHT22;10399;50.754;3.366;2023-06-24T04:58:15;17.60;99.90
20481;DHT22;10399;50.754;3.366;2023-06-24T05:00:43;17.60;99.90
20481;DHT22;10399;50.754;3.366;2023-06-24T05:03:10;17.50;99.90
20481;DHT22;10399;50.754;3.366;2023-06-24T05:05:37;17.60;99.90
20481;DHT22;10399;50.754;3.366;2023-06-24T05:08:05;17.30;99.90
20481;DHT22;10399;50.754;3.366;2023-06-24T05:10:32;17.50;99.90
20481;DHT22;10399;50.754;3.366;2023-06-24T05:12:59;17.70;99.90
20481;DHT22;10399;50.754;3.366;2023-06-24T05:15:26;17.80;99.90
20481;DHT22;10399;50.754;3.366;2023-06-24T05:17:53;17.90;99.90
20481;DHT22;10399;50.754;3.366;2023-06-24T05:20:21;17.90;99.90
20481;DHT22;10399;50.754;3.366;2023-06-24T05:22:47;17.90;99.90
20481;DHT22;10399;50.754;3.366;2023-06-24T05:25:15;18.10;99.90
20481;DHT22;10399;50.754;3.366;2023-06-24T05:27:42;18.20;99.90
20481;DHT22;10399;50.754;3.366;2023-06-24T05:30:11;18.20;99.90
20481;DHT22;10399;50.754;3.366;2023-06-24T05:32:39;18.20;99.90
20481;DHT22;10399;50.754;3.366;2023-06-24T05:35:07;18.30;99.90
20481;DHT22;10399;50.754;3.366;2023-06-24T05:37:34;18.20;99.90
20481;DHT22;10399;50.754;3.366;2023-06-24T05:40:01;18.20;99.90
20481;DHT22;10399;50.754;3.366;2023-06-24T05:42:29;18.20;99.90
20481;DHT22;10399;50.754;3.366;2023-06-24T05:44:56;18.20;99.90
20481;DHT22;10399;50.754;3.366;2023-06-24T05:47:23;18.20;99.90
20481;DHT22;10399;50.754;3.366;2023-06-24T05:49:50;18.50;99.90
20481;DHT22;10399;50.754;3.366;2023-06-24T05:52:17;18.50;99.90
20481;DHT22;10399;50.754;3.366;2023-06-24T05:54:45;18.40;99.90
20481;DHT22;10399;50.754;3.366;2023-06-24T05:57:12;18.30;99.90
20481;DHT22;10399;50.754;3.366;2023-06-24T05:59:39;18.50;99.90
20481;DHT22;10399;50.754;3.366;2023-06-24T06:02:06;18.70;99.90
20481;DHT22;10399;50.754;3.366;2023-06-24T06:04:34;19.00;99.90
20481;DHT22;10399;50.754;3.366;2023-06-24T06:07:01;18.90;99.90
20481;DHT22;10399;50.754;3.366;2023-06-24T06:09:28;18.90;99.90
20481;DHT22;10399;50.754;3.366;2023-06-24T06:11:54;18.80;99.90
20481;DHT22;10399;50.754;3.366;2023-06-24T06:14:21;19.10;99.90
20481;DHT22;10399;50.754;3.366;2023-06-24T06:16:48;19.00;99.90
20481;DHT22;10399;50.754;3.366;2023-06-24T06:19:16;19.10;99.90
20481;DHT22;10399;50.754;3.366;2023-06-24T06:21:43;19.20;99.90
20481;DHT22;10399;50.754;3.366;2023-06-24T06:24:10;19.10;99.90
20481;DHT22;10399;50.754;3.366;2023-06-24T06:26:46;19.30;99.90
20481;DHT22;10399;50.754;3.366;2023-06-24T06:29:14;19.40;99.90
20481;DHT22;10399;50.754;3.366;2023-06-24T06:31:41;19.50;99.90
20481;DHT22;10399;50.754;3.366;2023-06-24T06:34:08;19.60;99.90
20481;DHT22;10399;50.754;3.366;2023-06-24T06:36:35;19.60;99.90
20481;DHT22;10399;50.754;3.366;2023-06-24T06:39:03;19.60;99.90
20481;DHT22;10399;50.754;3.366;2023-06-24T06:41:31;19.60;99.90
20481;DHT22;10399;50.754;3.366;2023-06-24T06:43:58;19.40;99.90
20481;DHT22;10399;50.754;3.366;2023-06-24T06:46:25;19.30;99.90
20481;DHT22;10399;50.754;3.366;2023-06-24T06:48:52;19.60;99.90
20481;DHT22;10399;50.754;3.366;2023-06-24T06:51:19;19.60;99.90
20481;DHT22;10399;50.754;3.366;2023-06-24T06:53:47;19.80;99.90
20481;DHT22;10399;50.754;3.366;2023-06-24T06:56:18;19.80;99.90
20481;DHT22;10399;50.754;3.366;2023-06-24T06:58:45;20.10;99.90
20481;DHT22;10399;50.754;3.366;2023-06-24T07:01:12;20.20;99.90
20481;DHT22;10399;50.754;3.366;2023-06-24T07:03:40;20.40;99.90
20481;DHT22;10399;50.754;3.366;2023-06-24T07:06:07;20.60;99.90
20481;DHT22;10399;50.754;3.366;2023-06-24T07:08:34;20.80;99.90
20481;DHT22;10399;50.754;3.366;2023-06-24T07:11:02;20.90;99.90
20481;DHT22;10399;50.754;3.366;2023-06-24T07:13:29;20.70;99.90
20481;DHT22;10399;50.754;3.366;2023-06-24T07:15:57;20.80;99.90
20481;DHT22;10399;50.754;3.366;2023-06-24T07:18:24;21.00;99.90
20481;DHT22;10399;50.754;3.366;2023-06-24T07:20:53;21.10;99.90
20481;DHT22;10399;50.754;3.366;2023-06-24T07:23:20;21.10;99.90
20481;DHT22;10399;50.754;3.366;2023-06-24T07:25:48;21.20;99.90
20481;DHT22;10399;50.754;3.366;2023-06-24T07:28:15;21.40;99.90
20481;DHT22;10399;50.754;3.366;2023-06-24T07:30:42;21.50;99.90
20481;DHT22;10399;50.754;3.366;2023-06-24T07:33:10;21.60;99.90
20481;DHT22;10399;50.754;3.366;2023-06-24T07:35:37;21.70;99.90
20481;DHT22;10399;50.754;3.366;2023-06-24T07:38:04;21.50;99.90
20481;DHT22;10399;50.754;3.366;2023-06-24T07:40:31;21.80;99.90
20481;DHT22;10399;50.754;3.366;2023-06-24T07:42:58;22.00;99.90
20481;DHT22;10399;50.754;3.366;2023-06-24T07:45:25;22.20;99.90
20481;DHT22;10399;50.754;3.366;2023-06-24T07:47:52;22.20;99.90
20481;DHT22;10399;50.754;3.366;2023-06-24T07:50:19;22.30;99.90
20481;DHT22;10399;50.754;3.366;2023-06-24T07:52:47;22.20;99.90
20481;DHT22;10399;50.754;3.366;2023-06-24T07:55:14;22.30;99.90
20481;DHT22;10399;50.754;3.366;2023-06-24T07:57:45;22.20;99.90
20481;DHT22;10399;50.754;3.366;2023-06-24T08:00:14;22.20;99.90
20481;DHT22;10399;50.754;3.366;2023-06-24T08:02:41;22.10;99.90
20481;DHT22;10399;50.754;3.366;2023-06-24T08:05:09;22.40;99.90
20481;DHT22;10399;50.754;3.366;2023-06-24T08:07:37;22.60;99.90
20481;DHT22;10399;50.754;3.366;2023-06-24T08:10:05;22.80;99.90
20481;DHT22;10399;50.754;3.366;2023-06-24T08:12:32;22.60;99.90
20481;DHT22;10399;50.754;3.366;2023-06-24T08:14:59;23.00;99.90
20481;DHT22;10399;50.754;3.366;2023-06-24T08:17:26;23.10;99.90
20481;DHT22;10399;50.754;3.366;2023-06-24T08:19:54;23.20;99.90
20481;DHT22;10399;50.754;3.366;2023-06-24T08:22:21;23.30;99.90
20481;DHT22;10399;50.754;3.366;2023-06-24T08:24:48;23.30;99.90
20481;DHT22;10399;50.754;3.366;2023-06-24T08:27:15;23.40;99.90
20481;DHT22;10399;50.754;3.366;2023-06-24T08:29:42;23.60;99.90
20481;DHT22;10399;50.754;3.366;2023-06-24T08:32:09;23.80;99.90
20481;DHT22;10399;50.754;3.366;2023-06-24T08:34:37;24.00;99.90
20481;DHT22;10399;50.754;3.366;2023-06-24T08:37:04;24.10;99.90
20481;DHT22;10399;50.754;3.366;2023-06-24T08:39:31;24.40;99.90
20481;DHT22;10399;50.754;3.366;2023-06-24T08:41:58;24.10;99.90
20481;DHT22;10399;50.754;3.366;2023-06-24T08:44:26;24.00;99.90
20481;DHT22;10399;50.754;3.366;2023-06-24T08:46:53;24.30;99.90
20481;DHT22;10399;50.754;3.366;2023-06-24T08:52:02;24.80;99.90
20481;DHT22;10399;50.754;3.366;2023-06-24T08:54:36;25.10;99.90
20481;DHT22;10399;50.754;3.366;2023-06-24T08:57:05;25.10;99.90
20481;DHT22;10399;50.754;3.366;2023-06-24T08:59:34;25.30;99.90
20481;DHT22;10399;50.754;3.366;2023-06-24T09:02:02;25.20;99.90
20481;DHT22;10399;50.754;3.366;2023-06-24T09:04:29;25.10;99.90
20481;DHT22;10399;50.754;3.366;2023-06-24T09:06:56;25.50;99.90
20481;DHT22;10399;50.754;3.366;2023-06-24T09:09:23;25.70;99.90
20481;DHT22;10399;50.754;3.366;2023-06-24T09:11:52;26.20;99.90
20481;DHT22;10399;50.754;3.366;2023-06-24T09:14:20;26.60;99.90
20481;DHT22;10399;50.754;3.366;2023-06-24T09:19:26;26.30;99.90
20481;DHT22;10399;50.754;3.366;2023-06-24T09:22:00;26.20;99.90
20481;DHT22;10399;50.754;3.366;2023-06-24T09:24:30;26.90;99.90
20481;DHT22;10399;50.754;3.366;2023-06-24T09:26:57;27.20;99.90
20481;DHT22;10399;50.754;3.366;2023-06-24T09:29:36;26.50;99.90
20481;DHT22;10399;50.754;3.366;2023-06-24T09:32:07;27.00;99.90
20481;DHT22;10399;50.754;3.366;2023-06-24T09:34:34;27.50;99.90
20481;DHT22;10399;50.754;3.366;2023-06-24T09:37:01;28.00;99.90
20481;DHT22;10399;50.754;3.366;2023-06-24T09:39:36;28.20;99.90
20481;DHT22;10399;50.754;3.366;2023-06-24T09:42:05;27.50;99.90
20481;DHT22;10399;50.754;3.366;2023-06-24T09:44:33;27.30;99.90
20481;DHT22;10399;50.754;3.366;2023-06-24T09:47:00;27.20;99.90
20481;DHT22;10399;50.754;3.366;2023-06-24T09:49:29;27.70;99.90
20481;DHT22;10399;50.754;3.366;2023-06-24T09:51:58;28.10;99.90
20481;DHT22;10399;50.754;3.366;2023-06-24T09:54:29;28.70;99.90
20481;DHT22;10399;50.754;3.366;2023-06-24T09:57:02;28.50;99.90
20481;DHT22;10399;50.754;3.366;2023-06-24T09:59:30;27.90;99.90
20481;DHT22;10399;50.754;3.366;2023-06-24T10:02:02;27.90;99.90
20481;DHT22;10399;50.754;3.366;2023-06-24T10:04:31;28.10;99.90
20481;DHT22;10399;50.754;3.366;2023-06-24T10:06:59;28.50;99.90
20481;DHT22;10399;50.754;3.366;2023-06-24T10:09:27;29.00;99.90
20481;DHT22;10399;50.754;3.366;2023-06-24T10:11:54;29.40;99.90
20481;DHT22;10399;50.754;3.366;2023-06-24T10:14:21;29.40;99.90
20481;DHT22;10399;50.754;3.366;2023-06-24T10:16:49;29.90;99.90
20481;DHT22;10399;50.754;3.366;2023-06-24T10:19:20;30.00;99.90
20481;DHT22;10399;50.754;3.366;2023-06-24T10:21:55;30.30;99.90
20481;DHT22;10399;50.754;3.366;2023-06-24T10:24:34;30.20;99.90
20481;DHT22;10399;50.754;3.366;2023-06-24T10:27:22;31.10;99.90
20481;DHT22;10399;50.754;3.366;2023-06-24T10:29:51;31.50;99.90
20481;DHT22;10399;50.754;3.366;2023-06-24T10:32:19;31.40;98.60
20481;DHT22;10399;50.754;3.366;2023-06-24T10:34:56;30.80;98.60
20481;DHT22;10399;50.754;3.366;2023-06-24T10:37:30;31.10;99.40
20481;DHT22;10399;50.754;3.366;2023-06-24T10:40:01;31.70;99.90
20481;DHT22;10399;50.754;3.366;2023-06-24T10:42:42;31.10;97.60
20481;DHT22;10399;50.754;3.366;2023-06-24T10:47:45;31.20;96.50
20481;DHT22;10399;50.754;3.366;2023-06-24T10:50:15;31.70;98.10
20481;DHT22;10399;50.754;3.366;2023-06-24T10:52:47;32.20;96.90
20481;DHT22;10399;50.754;3.366;2023-06-24T10:55:16;32.20;94.70
20481;DHT22;10399;50.754;3.366;2023-06-24T10:57:44;31.60;93.90
20481;DHT22;10399;50.754;3.366;2023-06-24T11:00:13;31.50;94.80
20481;DHT22;10399;50.754;3.366;2023-06-24T11:02:40;31.60;94.50
20481;DHT22;10399;50.754;3.366;2023-06-24T11:05:08;31.60;93.50
20481;DHT22;10399;50.754;3.366;2023-06-24T11:07:37;31.10;95.10
20481;DHT22;10399;50.754;3.366;2023-06-24T11:12:40;31.60;94.00
20481;DHT22;10399;50.754;3.366;2023-06-24T11:15:09;31.60;94.10
20481;DHT22;10399;50.754;3.366;2023-06-24T11:17:37;31.90;92.90
20481;DHT22;10399;50.754;3.366;2023-06-24T11:20:13;31.70;91.90
20481;DHT22;10399;50.754;3.366;2023-06-24T11:22:41;32.00;93.70
20481;DHT22;10399;50.754;3.366;2023-06-24T11:25:19;32.80;93.50
20481;DHT22;10399;50.754;3.366;2023-06-24T11:27:46;33.70;92.60
20481;DHT22;10399;50.754;3.366;2023-06-24T11:30:14;34.20;92.50
20481;DHT22;10399;50.754;3.366;2023-06-24T11:32:43;34.10;90.80
20481;DHT22;10399;50.754;3.366;2023-06-24T11:35:14;33.80;89.20
20481;DHT22;10399;50.754;3.366;2023-06-24T11:37:46;33.60;88.60
20481;DHT22;10399;50.754;3.366;2023-06-24T11:40:16;33.00;87.90
20481;DHT22;10399;50.754;3.366;2023-06-24T11:42:45;33.60;90.70
20481;DHT22;10399;50.754;3.366;2023-06-24T11:45:14;33.90;90.20
20481;DHT22;10399;50.754;3.366;2023-06-24T11:47:46;34.30;88.50
20481;DHT22;10399;50.754;3.366;2023-06-24T11:50:13;34.90;88.00
20481;DHT22;10399;50.754;3.366;2023-06-24T11:52:44;33.70;84.70
20481;DHT22;10399;50.754;3.366;2023-06-24T11:55:19;33.00;87.10
20481;DHT22;10399;50.754;3.366;2023-06-24T12:00:22;32.90;86.80
20481;DHT22;10399;50.754;3.366;2023-06-24T12:02:55;33.50;87.40
20481;DHT22;10399;50.754;3.366;2023-06-24T12:05:28;32.70;82.20
20481;DHT22;10399;50.754;3.366;2023-06-24T12:07:57;32.60;83.10
20481;DHT22;10399;50.754;3.366;2023-06-24T12:10:24;33.00;83.60
20481;DHT22;10399;50.754;3.366;2023-06-24T12:12:52;33.30;85.80
20481;DHT22;10399;50.754;3.366;2023-06-24T12:15:19;34.10;84.30
20481;DHT22;10399;50.754;3.366;2023-06-24T12:17:46;34.40;86.20
20481;DHT22;10399;50.754;3.366;2023-06-24T12:20:14;34.40;84.00
20481;DHT22;10399;50.754;3.366;2023-06-24T12:22:42;34.10;84.30
20481;DHT22;10399;50.754;3.366;2023-06-24T12:25:09;34.20;83.30
20481;DHT22;10399;50.754;3.366;2023-06-24T12:27:37;34.50;82.10
20481;DHT22;10399;50.754;3.366;2023-06-24T12:30:06;35.20;80.30
20481;DHT22;10399;50.754;3.366;2023-06-24T12:32:33;35.30;81.30
20481;DHT22;10399;50.754;3.366;2023-06-24T12:35:00;35.50;78.10
20481;DHT22;10399;50.754;3.366;2023-06-24T12:37:31;35.50;75.90
20481;DHT22;10399;50.754;3.366;2023-06-24T12:39:59;35.30;77.40
20481;DHT22;10399;50.754;3.366;2023-06-24T12:42:27;35.10;77.60
20481;DHT22;10399;50.754;3.366;2023-06-24T12:44:54;35.40;76.60
20481;DHT22;10399;50.754;3.366;2023-06-24T12:47:22;35.80;79.30
20481;DHT22;10399;50.754;3.366;2023-06-24T12:49:49;36.00;77.50
20481;DHT22;10399;50.754;3.366;2023-06-24T12:52:17;36.20;76.00
20481;DHT22;10399;50.754;3.366;2023-06-24T12:54:44;36.00;75.00
20481;DHT22;10399;50.754;3.366;2023-06-24T12:57:11;36.50;77.70
20481;DHT22;10399;50.754;3.366;2023-06-24T12:59:41;36.60;76.40
20481;DHT22;10399;50.754;3.366;2023-06-24T13:02:08;36.60;74.30
20481;DHT22;10399;50.754;3.366;2023-06-24T13:04:35;36.90;73.70
20481;DHT22;10399;50.754;3.366;2023-06-24T13:07:02;36.40;74.40
20481;DHT22;10399;50.754;3.366;2023-06-24T13:09:30;36.70;74.40
20481;DHT22;10399;50.754;3.366;2023-06-24T13:11:57;37.30;74.60
20481;DHT22;10399;50.754;3.366;2023-06-24T13:14:24;38.00;73.50
20481;DHT22;10399;50.754;3.366;2023-06-24T13:16:55;38.20;73.80
20481;DHT22;10399;50.754;3.366;2023-06-24T13:19:22;37.80;69.10
20481;DHT22;10399;50.754;3.366;2023-06-24T13:21:49;37.30;70.00
20481;DHT22;10399;50.754;3.366;2023-06-24T13:24:16;37.70;69.70
20481;DHT22;10399;50.754;3.366;2023-06-24T13:26:43;37.80;69.40
20481;DHT22;10399;50.754;3.366;2023-06-24T13:29:11;37.30;63.50
20481;DHT22;10399;50.754;3.366;2023-06-24T13:31:39;36.70;67.50
20481;DHT22;10399;50.754;3.366;2023-06-24T13:34:07;36.90;67.80
20481;DHT22;10399;50.754;3.366;2023-06-24T13:36:36;36.70;66.40
20481;DHT22;10399;50.754;3.366;2023-06-24T13:39:08;36.50;65.50
20481;DHT22;10399;50.754;3.366;2023-06-24T13:41:35;36.30;67.60
20481;DHT22;10399;50.754;3.366;2023-06-24T13:44:03;36.30;68.10
20481;DHT22;10399;50.754;3.366;2023-06-24T13:46:32;36.50;67.40
20481;DHT22;10399;50.754;3.366;2023-06-24T13:49:00;36.90;70.60
20481;DHT22;10399;50.754;3.366;2023-06-24T13:51:31;37.20;68.20
20481;DHT22;10399;50.754;3.366;2023-06-24T13:53:59;37.40;66.80
20481;DHT22;10399;50.754;3.366;2023-06-24T13:56:26;36.80;65.00
20481;DHT22;10399;50.754;3.366;2023-06-24T13:58:54;36.60;66.10
20481;DHT22;10399;50.754;3.366;2023-06-24T14:01:22;36.30;65.90
20481;DHT22;10399;50.754;3.366;2023-06-24T14:03:50;36.20;66.30
20481;DHT22;10399;50.754;3.366;2023-06-24T14:06:20;36.10;65.80
20481;DHT22;10399;50.754;3.366;2023-06-24T14:08:49;36.50;65.30
20481;DHT22;10399;50.754;3.366;2023-06-24T14:11:17;36.90;65.60
20481;DHT22;10399;50.754;3.366;2023-06-24T14:13:44;37.50;67.50
20481;DHT22;10399;50.754;3.366;2023-06-24T14:16:12;38.00;67.00
20481;DHT22;10399;50.754;3.366;2023-06-24T14:18:40;38.00;64.60
20481;DHT22;10399;50.754;3.366;2023-06-24T14:21:08;36.40;63.50
20481;DHT22;10399;50.754;3.366;2023-06-24T14:23:35;34.80;64.10
20481;DHT22;10399;50.754;3.366;2023-06-24T14:26:03;34.50;63.90
20481;DHT22;10399;50.754;3.366;2023-06-24T14:28:30;34.10;63.80
20481;DHT22;10399;50.754;3.366;2023-06-24T14:30:57;34.30;66.20
20481;DHT22;10399;50.754;3.366;2023-06-24T14:33:24;34.70;65.60
20481;DHT22;10399;50.754;3.366;2023-06-24T14:35:51;35.60;66.30
20481;DHT22;10399;50.754;3.366;2023-06-24T14:38:19;35.30;63.60
20481;DHT22;10399;50.754;3.366;2023-06-24T14:40:46;34.70;65.60
20481;DHT22;10399;50.754;3.366;2023-06-24T14:43:13;35.00;64.20
20481;DHT22;10399;50.754;3.366;2023-06-24T14:45:40;35.30;65.30
20481;DHT22;10399;50.754;3.366;2023-06-24T14:48:08;35.60;64.60
20481;DHT22;10399;50.754;3.366;2023-06-24T14:50:34;36.40;67.70
20481;DHT22;10399;50.754;3.366;2023-06-24T14:53:03;36.50;67.70
20481;DHT22;10399;50.754;3.366;2023-06-24T14:55:30;36.60;66.80
20481;DHT22;10399;50.754;3.366;2023-06-24T14:57:57;36.80;66.70
20481;DHT22;10399;50.754;3.366;2023-06-24T15:00:24;36.50;67.10
20481;DHT22;10399;50.754;3.366;2023-06-24T15:02:52;36.60;66.40
20481;DHT22;10399;50.754;3.366;2023-06-24T15:05:20;36.90;68.50
20481;DHT22;10399;50.754;3.366;2023-06-24T15:07:47;37.30;68.00
20481;DHT22;10399;50.754;3.366;2023-06-24T15:10:14;37.70;67.90
20481;DHT22;10399;50.754;3.366;2023-06-24T15:12:42;37.90;68.80
20481;DHT22;10399;50.754;3.366;2023-06-24T15:15:09;37.70;66.50
20481;DHT22;10399;50.754;3.366;2023-06-24T15:17:37;38.00;67.60
20481;DHT22;10399;50.754;3.366;2023-06-24T15:20:08;38.10;66.80
20481;DHT22;10399;50.754;3.366;2023-06-24T15:22:38;37.70;67.00
20481;DHT22;10399;50.754;3.366;2023-06-24T15:25:06;36.30;66.20
20481;DHT22;10399;50.754;3.366;2023-06-24T15:27:33;35.80;68.20
20481;DHT22;10399;50.754;3.366;2023-06-24T15:30:01;36.20;68.10
20481;DHT22;10399;50.754;3.366;2023-06-24T15:32:28;36.90;69.10
20481;DHT22;10399;50.754;3.366;2023-06-24T15:34:55;37.20;69.40
20481;DHT22;10399;50.754;3.366;2023-06-24T15:37:22;37.30;67.40
20481;DHT22;10399;50.754;3.366;2023-06-24T15:39:50;37.50;68.20
20481;DHT22;10399;50.754;3.366;2023-06-24T15:42:17;37.50;67.80
20481;DHT22;10399;50.754;3.366;2023-06-24T15:44:44;37.70;67.60
20481;DHT22;10399;50.754;3.366;2023-06-24T15:47:12;37.30;66.60
20481;DHT22;10399;50.754;3.366;2023-06-24T15:49:39;37.00;66.50
20481;DHT22;10399;50.754;3.366;2023-06-24T15:52:06;36.70;66.10
20481;DHT22;10399;50.754;3.366;2023-06-24T15:54:34;36.70;66.60